Time;durP1;ratioP1;P1;durP2;ratioP2;P2;SDS_P1;SDS_P2;PMS_P1;PMS_P2;Temp;Humidity;BMP_temperature;BMP_pressure;BME280_temperature;BME280_humidity;BME280_pressure;Samples;Min_cycle;Max_cycle;Signal;HPM_P1;HPM_P2
2022/04/01 00:07:41;;;;;;;6.55;3.58;;;;;;;2.97;39.64;99469.28;738951;1154;113626;-83
2022/04/01 00:22:43;;;;;;;8.03;2.93;;;;;;;3.02;39.56;99472.36;739316;1155;114817;-82
2022/04/01 00:37:46;;;;;;;5.13;2.50;;;;;;;2.98;39.51;99470.92;739349;1153;113760;-83
2022/04/01 00:52:48;;;;;;;6.20;3.23;;;;;;;3.00;40.18;99467.29;739093;1153;114774;-83
2022/04/01 01:07:51;;;;;;;24.70;6.95;;;;;;;2.95;40.30;99465.95;739668;1155;114972;-85
2022/04/01 01:22:53;;;;;;;6.78;3.68;;;;;;;2.84;39.86;99464.12;739290;1153;114485;-83
2022/04/01 01:37:56;;;;;;;6.58;2.90;;;;;;;2.72;40.38;99462.35;739915;1155;114318;-83
2022/04/01 02:08:18;;;;;;;6.18;3.50;;;;;;;2.54;40.93;99441.96;739955;1153;113647;-84
2022/04/01 02:23:20;;;;;;;8.95;3.50;;;;;;;2.38;41.23;99444.77;738979;1153;113966;-83
2022/04/01 02:38:22;;;;;;;58.53;18.28;;;;;;;2.28;41.33;99441.98;739302;1153;114216;-83
2022/04/01 02:53:24;;;;;;;9.55;5.05;;;;;;;2.11;41.77;99432.75;739172;1153;114800;-82
2022/04/01 03:08:26;;;;;;;15.98;5.55;;;;;;;2.01;42.03;99429.11;738801;1153;115239;-80
2022/04/01 03:23:28;;;;;;;25.40;7.53;;;;;;;1.99;42.05;99424.04;738987;1155;113774;-82
2022/04/01 03:38:31;;;;;;;10.60;4.18;;;;;;;1.88;42.27;99423.09;738928;1153;115110;-82
2022/04/01 03:53:34;;;;;;;10.10;4.40;;;;;;;1.83;42.51;99413.88;739243;1154;115205;-82
2022/04/01 04:08:37;;;;;;;11.30;4.85;;;;;;;1.70;42.68;99407.83;740352;1155;115424;-82
2022/04/01 04:23:46;;;;;;;20.35;6.13;;;;;;;1.58;42.78;99424.14;740329;1153;114898;-78
2022/04/01 04:38:52;;;;;;;84.63;24.93;;;;;;;1.52;42.93;99417.62;740276;1153;114923;-78
2022/04/01 04:53:59;;;;;;;22.10;8.35;;;;;;;1.52;43.80;99434.87;739473;1154;115970;-77
2022/04/01 05:09:26;;;;;;;117.35;39.15;;;;;;;1.61;42.95;99444.62;740453;1154;114660;-84
2022/04/01 05:24:38;;;;;;;96.63;32.38;;;;;;;1.83;43.29;99444.91;739952;1155;114989;-85
2022/04/01 05:39:46;;;;;;;70.95;27.48;;;;;;;2.11;43.42;99447.42;739367;1155;113943;-85
2022/04/01 05:54:49;;;;;;;24.97;9.27;;;;;;;2.34;43.18;99445.91;739465;1155;113907;-73
2022/04/01 06:10:14;;;;;;;51.33;18.05;;;;;;;2.72;42.83;99452.84;739244;1155;114432;-75
2022/04/01 06:25:22;;;;;;;22.25;7.78;;;;;;;3.14;42.68;99462.90;739751;1154;113973;-78
2022/04/01 06:40:29;;;;;;;16.68;5.58;;;;;;;3.62;42.40;99464.73;739439;1155;114234;-77
2022/04/01 06:55:31;;;;;;;13.55;5.90;;;;;;;4.06;41.15;99457.22;739402;1155;114263;-75
2022/04/01 07:10:34;;;;;;;13.90;5.08;;;;;;;4.33;40.85;99456.94;739074;1155;115340;-74
2022/04/01 07:25:36;;;;;;;8.33;3.60;;;;;;;4.71;38.00;99452.36;739244;1155;114376;-75
2022/04/01 07:40:39;;;;;;;6.88;2.35;;;;;;;4.96;37.45;99438.28;740059;1155;114071;-74
2022/04/01 07:55:43;;;;;;;8.67;4.00;;;;;;;5.32;36.00;99424.16;739489;1155;115003;-72
2022/04/01 08:10:45;;;;;;;24.50;9.55;;;;;;;5.75;35.15;99401.63;740781;1155;114997;-76
2022/04/01 08:25:48;;;;;;;14.53;5.33;;;;;;;6.13;34.57;99434.13;739577;1154;114514;-76
2022/04/01 08:40:51;;;;;;;24.60;9.38;;;;;;;7.19;35.04;99427.86;738801;1155;115009;-77
2022/04/01 08:55:55;;;;;;;8.83;3.57;;;;;;;6.60;34.08;99425.08;738768;1154;113679;-76
2022/04/01 09:11:01;;;;;;;15.55;6.15;;;;;;;7.55;34.06;99439.45;741963;1155;114381;-75
2022/04/01 09:26:04;;;;;;;13.98;5.38;;;;;;;7.53;33.75;99424.88;740682;1155;115692;-76
2022/04/01 09:41:08;;;;;;;7.70;3.90;;;;;;;7.87;33.60;99424.48;739158;1154;115138;-78
2022/04/01 09:56:10;;;;;;;8.73;3.63;;;;;;;8.35;32.38;99409.66;739560;1154;115387;-76
2022/04/01 10:11:13;;;;;;;23.35;7.40;;;;;;;9.23;32.86;99404.05;739725;1154;113732;-75
2022/04/01 10:26:18;;;;;;;14.73;6.48;;;;;;;9.63;31.62;99384.45;739459;1155;114386;-76
2022/04/01 10:41:20;;;;;;;9.53;4.93;;;;;;;9.86;32.31;99387.42;739783;1155;113758;-76
2022/04/01 10:56:23;;;;;;;20.70;10.85;;;;;;;10.03;31.67;99380.50;739313;1154;114352;-75
2022/04/01 11:11:26;;;;;;;11.88;5.13;;;;;;;10.98;32.04;99387.55;739475;1155;114188;-73
2022/04/01 11:26:41;;;;;;;19.30;7.68;;;;;;;10.87;31.38;99379.95;739765;1153;114112;-75
2022/04/01 11:41:51;;;;;;;15.93;7.63;;;;;;;10.98;30.51;99369.17;739429;1153;115543;-74
2022/04/01 11:56:54;;;;;;;60.83;22.80;;;;;;;11.08;30.72;99355.89;739870;1153;114222;-74
2022/04/01 12:11:58;;;;;;;34.18;14.88;;;;;;;11.21;29.87;99355.44;747814;1153;115695;-73
2022/04/01 12:27:02;;;;;;;24.45;11.25;;;;;;;10.47;29.34;99345.55;739444;1155;114696;-74
2022/04/01 12:42:10;;;;;;;29.68;13.33;;;;;;;10.62;29.99;99337.89;740580;1155;115685;-72
2022/04/01 12:57:12;;;;;;;52.45;21.93;;;;;;;10.17;30.70;99334.55;740034;1154;115593;-70
2022/04/01 13:12:17;;;;;;;34.70;14.55;;;;;;;9.66;30.16;99331.80;739944;1155;114126;-73
2022/04/01 13:27:21;;;;;;;34.25;12.28;;;;;;;9.95;30.60;99326.25;739822;1155;114835;-72
2022/04/01 13:42:24;;;;;;;39.03;16.65;;;;;;;10.03;31.21;99327.27;740084;1155;115051;-71
2022/04/01 13:57:26;;;;;;;36.48;12.73;;;;;;;9.86;31.26;99321.94;739911;1155;115572;-75
2022/04/01 14:12:29;;;;;;;22.10;9.07;;;;;;;9.98;31.99;99309.40;740283;1155;114998;-75
2022/04/01 14:27:32;;;;;;;70.73;25.60;;;;;;;9.80;31.00;99312.88;739327;1154;114580;-75
2022/04/01 14:42:35;;;;;;;31.53;11.73;;;;;;;9.59;31.57;99313.22;739384;1155;115198;-74
2022/04/01 14:57:38;;;;;;;21.88;10.58;;;;;;;8.94;31.37;99311.70;739696;1155;114354;-74
2022/04/01 15:12:43;;;;;;;32.73;13.45;;;;;;;8.64;32.15;99310.23;739747;1153;115386;-74
2022/04/01 15:27:51;;;;;;;68.83;23.75;;;;;;;8.71;30.99;99307.85;739594;1153;115225;-73
2022/04/01 15:42:55;;;;;;;20.93;8.95;;;;;;;8.29;32.67;99306.55;740017;1155;115303;-76
2022/04/01 15:57:59;;;;;;;40.83;15.63;;;;;;;7.95;32.37;99325.35;740851;1155;114685;-72
2022/04/01 16:13:06;;;;;;;77.45;32.65;;;;;;;7.84;32.69;99334.19;739676;1153;115503;-74
2022/04/01 16:28:10;;;;;;;134.80;56.95;;;;;;;7.43;33.63;99328.30;739099;1154;114189;-74
2022/04/01 16:43:14;;;;;;;91.93;36.45;;;;;;;7.17;32.97;99352.34;739190;1155;114120;-75
2022/04/01 16:58:18;;;;;;;52.85;22.13;;;;;;;6.93;33.58;99363.17;739764;1155;114115;-76
2022/04/01 17:13:21;;;;;;;33.53;14.75;;;;;;;6.57;33.56;99371.44;739945;1155;114019;-78
2022/04/01 17:28:23;;;;;;;33.70;12.05;;;;;;;6.40;33.41;99385.90;739648;1154;115936;-77
2022/04/01 17:43:29;;;;;;;57.10;19.58;;;;;;;6.19;33.48;99398.95;739726;1155;115670;-75
2022/04/01 17:58:39;;;;;;;52.00;19.28;;;;;;;6.02;33.59;99420.34;739999;1155;114384;-75
2022/04/01 18:13:42;;;;;;;45.57;16.67;;;;;;;5.81;34.51;99421.97;739932;1154;115290;-75
2022/04/01 18:29:09;;;;;;;31.38;12.73;;;;;;;5.69;34.40;99422.98;739737;1154;114614;-74
2022/04/01 18:44:12;;;;;;;18.18;8.33;;;;;;;5.52;34.96;99432.14;740122;1155;115376;-75
2022/04/01 18:59:14;;;;;;;24.18;11.10;;;;;;;5.53;35.94;99433.80;739698;1155;115352;-75
2022/04/01 19:14:18;;;;;;;29.33;13.93;;;;;;;5.36;36.48;99439.51;739793;1153;114129;-78
2022/04/01 19:29:21;;;;;;;21.80;8.45;;;;;;;5.27;36.86;99447.10;740423;1155;113669;-78
2022/04/01 19:44:25;;;;;;;29.65;10.00;;;;;;;5.21;35.72;99438.97;740202;1155;115472;-76
2022/04/01 19:59:27;;;;;;;36.48;10.90;;;;;;;5.08;36.96;99439.94;740264;1154;114714;-76
2022/04/01 20:14:30;;;;;;;29.25;12.30;;;;;;;4.98;36.96;99429.42;740084;1153;115335;-75
2022/04/01 20:29:33;;;;;;;17.75;7.78;;;;;;;4.76;37.57;99429.45;740346;1155;115218;-74
2022/04/01 20:44:36;;;;;;;25.05;9.00;;;;;;;4.49;38.37;99415.05;740892;1155;115243;-74
2022/04/01 20:59:40;;;;;;;16.77;7.57;;;;;;;4.45;37.69;99416.23;740800;1155;114217;-74
2022/04/01 21:14:43;;;;;;;19.38;7.45;;;;;;;4.27;37.82;99411.47;740414;1155;113713;-75
2022/04/01 21:30:07;;;;;;;20.90;7.48;;;;;;;4.16;38.50;99407.09;740452;1154;114462;-74
2022/04/01 21:45:10;;;;;;;13.65;5.18;;;;;;;4.09;38.81;99416.30;740371;1155;114252;-73
2022/04/01 22:00:34;;;;;;;9.83;4.70;;;;;;;3.93;39.10;99400.20;740626;1153;115068;-76
2022/04/01 22:15:36;;;;;;;10.50;4.40;;;;;;;3.75;39.51;99407.56;740671;1155;114999;-76
2022/04/01 22:30:39;;;;;;;10.17;4.67;;;;;;;3.61;40.20;99409.41;740080;1155;115420;-76
2022/04/01 22:45:41;;;;;;;16.45;6.40;;;;;;;3.48;40.93;99396.53;739688;1155;115361;-75
2022/04/01 23:00:43;;;;;;;7.65;3.90;;;;;;;3.43;40.11;99398.63;738815;1155;114548;-76
2022/04/01 23:15:45;;;;;;;9.73;3.83;;;;;;;3.35;40.48;99410.48;738970;1153;115060;-75
2022/04/01 23:30:48;;;;;;;8.53;4.73;;;;;;;3.22;41.13;99411.37;739482;1154;114848;-76
2022/04/01 23:45:50;;;;;;;7.18;3.53;;;;;;;3.12;41.34;99400.81;739764;1155;114735;-75
